createdAt,value
2023-08-07T00:02:01.512Z,6.28
2023-08-07T00:04:34.598Z,6.20
2023-08-07T00:07:08.121Z,6.13
2023-08-07T00:09:43.953Z,6.10
2023-08-07T00:12:17.224Z,6.43
2023-08-07T00:14:53.281Z,7.10
2023-08-07T00:17:26.612Z,7.63
2023-08-07T00:19:59.997Z,8.05
2023-08-07T00:22:33.264Z,8.68
2023-08-07T00:25:08.415Z,8.18
2023-08-07T00:27:41.627Z,9.45
2023-08-07T00:30:19.276Z,9.02
2023-08-07T00:32:52.554Z,9.57
2023-08-07T00:35:25.748Z,11.07
2023-08-07T00:37:59.263Z,12.00
2023-08-07T00:40:41.017Z,12.18
2023-08-07T00:43:14.794Z,12.70
2023-08-07T00:45:50.657Z,13.07
2023-08-07T00:48:25.920Z,13.23
2023-08-07T00:51:00.979Z,12.43
2023-08-07T00:53:35.181Z,13.25
2023-08-07T00:56:10.375Z,13.13
2023-08-07T00:58:44.045Z,14.75
2023-08-07T01:01:17.060Z,14.15
2023-08-07T01:03:50.427Z,16.85
2023-08-07T01:06:24.538Z,17.67
2023-08-07T01:08:59.219Z,16.70
2023-08-07T01:11:41.700Z,16.65
2023-08-07T01:14:24.785Z,15.48
2023-08-07T01:17:03.195Z,18.23
2023-08-07T01:19:38.759Z,16.48
2023-08-07T01:22:15.408Z,14.27
2023-08-07T01:24:49.629Z,14.85
2023-08-07T01:27:37.538Z,17.23
2023-08-07T01:30:20.319Z,18.58
2023-08-07T01:33:03.832Z,17.83
2023-08-07T01:35:43.992Z,17.52
2023-08-07T01:38:21.574Z,16.27
2023-08-07T01:40:55.493Z,13.52
2023-08-07T01:43:29.886Z,9.43
2023-08-07T01:46:03.154Z,7.95
2023-08-07T01:48:36.183Z,7.22
2023-08-07T01:51:09.551Z,7.03
2023-08-07T01:53:44.958Z,6.40
2023-08-07T01:56:18.762Z,5.43
2023-08-07T01:58:52.735Z,5.25
2023-08-07T02:01:26.489Z,5.20
2023-08-07T02:03:59.967Z,4.85
2023-08-07T02:06:33.556Z,5.55
2023-08-07T02:09:09.263Z,5.88
2023-08-07T02:11:42.891Z,6.03
2023-08-07T02:14:16.519Z,5.60
2023-08-07T02:16:49.825Z,6.57
2023-08-07T02:19:23.477Z,7.68
2023-08-07T02:21:57.077Z,7.47
2023-08-07T02:24:32.686Z,6.93
2023-08-07T02:27:06.344Z,8.50
2023-08-07T02:29:39.964Z,9.80
2023-08-07T02:32:13.601Z,10.35
2023-08-07T02:34:46.874Z,10.27
2023-08-07T02:37:20.412Z,9.43
2023-08-07T02:39:56.717Z,10.68
2023-08-07T02:42:30.209Z,10.57
2023-08-07T02:45:04.578Z,8.10
2023-08-07T02:47:38.033Z,8.07
2023-08-07T02:50:12.186Z,9.40
2023-08-07T02:52:46.140Z,9.05
2023-08-07T02:55:21.635Z,8.88
2023-08-07T02:57:55.234Z,9.50
2023-08-07T03:00:29.575Z,8.10
2023-08-07T03:03:03.326Z,8.10
2023-08-07T03:05:36.792Z,9.35
2023-08-07T03:08:09.938Z,9.77
2023-08-07T03:10:45.467Z,9.15
2023-08-07T03:13:18.867Z,10.82
2023-08-07T03:15:52.927Z,9.50
2023-08-07T03:18:26.609Z,11.95
2023-08-07T03:21:00.666Z,10.68
2023-08-07T03:23:34.926Z,11.02
2023-08-07T03:28:51.249Z,9.43
2023-08-07T03:31:24.491Z,11.10
2023-08-07T03:33:58.109Z,11.73
2023-08-07T03:36:33.718Z,13.13
2023-08-07T03:39:07.848Z,10.90
2023-08-07T03:41:43.482Z,11.20
2023-08-07T03:44:18.895Z,11.57
2023-08-07T03:46:52.492Z,12.60
2023-08-07T03:49:30.043Z,15.13
2023-08-07T03:52:05.146Z,14.38
2023-08-07T03:54:38.881Z,14.68
2023-08-07T03:57:16.326Z,16.35
2023-08-07T03:59:50.298Z,13.93
2023-08-07T04:02:23.188Z,12.15
2023-08-07T04:04:56.792Z,12.50
2023-08-07T04:07:30.522Z,11.88
2023-08-07T04:10:03.507Z,10.80
2023-08-07T04:12:39.175Z,13.90
2023-08-07T04:15:13.638Z,12.38
2023-08-07T04:17:47.090Z,13.73
2023-08-07T04:20:20.405Z,13.60
2023-08-07T04:22:54.028Z,13.85
2023-08-07T04:25:28.774Z,14.80
2023-08-07T04:28:04.181Z,11.80
2023-08-07T04:30:39.989Z,14.93
2023-08-07T04:33:16.132Z,12.45
2023-08-07T04:35:50.205Z,13.85
2023-08-07T04:38:23.489Z,14.90
2023-08-07T04:40:57.033Z,12.07
2023-08-07T04:43:33.217Z,12.35
2023-08-07T04:46:07.911Z,10.43
2023-08-07T04:48:41.257Z,11.85
2023-08-07T04:51:14.679Z,12.43
2023-08-07T04:53:48.793Z,11.13
2023-08-07T04:56:22.626Z,10.18
2023-08-07T04:58:58.243Z,9.65
2023-08-07T05:01:32.404Z,9.27
2023-08-07T05:04:07.080Z,8.20
2023-08-07T05:06:41.170Z,10.15
2023-08-07T05:09:15.123Z,8.45
2023-08-07T05:11:51.069Z,9.32
2023-08-07T05:14:26.262Z,9.20
2023-08-07T05:17:03.729Z,8.90
2023-08-07T05:19:37.429Z,9.77
2023-08-07T05:22:11.541Z,9.15
2023-08-07T05:24:46.699Z,10.93
2023-08-07T05:27:20.004Z,9.85
2023-08-07T05:29:55.879Z,9.93
2023-08-07T05:32:30.566Z,8.70
2023-08-07T05:35:03.876Z,8.93
2023-08-07T05:37:37.147Z,9.07
2023-08-07T05:40:14.516Z,8.25
2023-08-07T05:42:53.007Z,7.85
2023-08-07T05:45:28.179Z,8.10
2023-08-07T05:48:01.408Z,7.97
2023-08-07T05:50:35.097Z,7.90
2023-08-07T05:53:08.608Z,7.63
2023-08-07T05:55:46.053Z,7.05
2023-08-07T05:58:19.368Z,7.28
2023-08-07T06:00:55.112Z,6.75
2023-08-07T06:03:28.829Z,6.90
2023-08-07T06:06:06.731Z,6.70
2023-08-07T06:08:39.598Z,6.75
2023-08-07T06:11:12.554Z,6.75
2023-08-07T06:13:47.906Z,6.68
2023-08-07T06:16:22.916Z,7.65
2023-08-07T06:18:56.627Z,6.78
2023-08-07T06:21:32.441Z,6.50
2023-08-07T06:24:05.981Z,7.35
2023-08-07T06:26:39.350Z,6.93
2023-08-07T06:29:12.434Z,6.47
2023-08-07T06:31:47.911Z,6.40
2023-08-07T06:34:20.913Z,6.13
2023-08-07T06:36:54.498Z,6.75
2023-08-07T06:39:29.259Z,7.50
2023-08-07T06:42:03.053Z,7.38
2023-08-07T06:44:41.096Z,7.30
2023-08-07T06:47:16.315Z,7.47
2023-08-07T06:49:50.791Z,7.53
2023-08-07T06:52:24.598Z,7.97
2023-08-07T06:55:00.121Z,8.02
2023-08-07T06:57:35.013Z,7.47
2023-08-07T07:00:09.114Z,7.57
2023-08-07T07:02:45.014Z,8.38
2023-08-07T07:05:20.552Z,8.15
2023-08-07T07:07:54.088Z,7.90
2023-08-07T07:10:27.354Z,7.72
2023-08-07T07:13:00.664Z,8.00
2023-08-07T07:15:33.561Z,7.70
2023-08-07T07:18:08.823Z,7.60
2023-08-07T07:20:42.014Z,7.30
2023-08-07T07:23:16.310Z,7.25
2023-08-07T07:25:49.470Z,7.80
2023-08-07T07:28:22.952Z,7.57
2023-08-07T07:30:56.698Z,7.20
2023-08-07T07:33:34.057Z,7.78
2023-08-07T07:36:07.718Z,7.30
2023-08-07T07:38:42.832Z,7.40
2023-08-07T07:41:16.654Z,9.30
2023-08-07T07:43:50.116Z,9.27
2023-08-07T07:46:23.391Z,9.15
2023-08-07T07:48:59.179Z,9.30
2023-08-07T07:51:33.163Z,9.07
2023-08-07T07:56:42.343Z,8.40
2023-08-07T07:59:15.226Z,8.90
2023-08-07T08:01:48.443Z,9.23
2023-08-07T08:04:24.033Z,9.02
2023-08-07T08:06:57.505Z,8.75
2023-08-07T08:09:30.837Z,8.65
2023-08-07T08:12:04.877Z,8.15
2023-08-07T08:14:50.982Z,8.10
2023-08-07T08:17:30.682Z,8.50
2023-08-07T08:20:05.875Z,8.30
2023-08-07T08:22:39.571Z,8.60
2023-08-07T08:25:14.393Z,8.48
2023-08-07T08:27:48.562Z,8.75
2023-08-07T08:30:22.240Z,8.70
2023-08-07T08:32:56.394Z,8.27
2023-08-07T08:35:32.833Z,8.45
2023-08-07T08:38:07.987Z,8.93
2023-08-07T08:40:44.792Z,9.45
2023-08-07T08:43:24.522Z,8.80
2023-08-07T08:45:58.080Z,8.50
2023-08-07T08:48:34.008Z,7.45
2023-08-07T08:51:11.380Z,8.38
2023-08-07T08:53:44.817Z,8.57
2023-08-07T08:56:17.850Z,8.27
2023-08-07T08:58:51.429Z,8.20
2023-08-07T09:01:26.380Z,8.45
2023-08-07T09:04:02.669Z,7.57
2023-08-07T09:06:39.648Z,7.93
2023-08-07T09:09:15.974Z,8.15
2023-08-07T09:11:50.412Z,7.60
2023-08-07T09:14:29.414Z,7.60
2023-08-07T09:17:05.740Z,7.53
2023-08-07T09:19:39.325Z,7.40
2023-08-07T09:22:14.929Z,7.60
2023-08-07T09:24:48.968Z,7.32
2023-08-07T09:27:23.216Z,7.03
2023-08-07T09:29:58.982Z,6.57
2023-08-07T09:32:34.230Z,6.20
2023-08-07T09:35:11.436Z,5.07
2023-08-07T09:37:50.148Z,5.40
2023-08-07T09:40:26.683Z,5.43
2023-08-07T09:43:03.679Z,5.93
2023-08-07T09:45:39.389Z,5.63
2023-08-07T09:48:14.516Z,5.70
2023-08-07T09:50:50.849Z,5.32
2023-08-07T09:53:31.270Z,5.85
2023-08-07T09:56:05.480Z,5.70
2023-08-07T09:58:39.160Z,5.72
2023-08-07T10:01:13.935Z,5.63
2023-08-07T10:03:48.353Z,5.63
2023-08-07T10:06:21.944Z,5.60
2023-08-07T10:08:57.844Z,5.65
2023-08-07T10:11:34.079Z,5.78
2023-08-07T10:14:07.531Z,5.60
2023-08-07T10:16:44.047Z,6.00
2023-08-07T10:19:17.418Z,5.20
2023-08-07T10:21:52.425Z,6.40
2023-08-07T10:24:28.637Z,5.60
2023-08-07T10:27:03.443Z,5.65
2023-08-07T10:29:38.545Z,5.80
2023-08-07T10:32:12.971Z,5.75
2023-08-07T10:34:47.661Z,5.88
2023-08-07T10:37:43.415Z,6.20
2023-08-07T10:40:21.281Z,6.18
2023-08-07T10:43:03.068Z,5.90
2023-08-07T10:45:39.042Z,6.00
2023-08-07T10:48:16.745Z,5.65
2023-08-07T10:51:02.539Z,5.60
2023-08-07T10:53:36.815Z,5.53
2023-08-07T10:56:14.582Z,6.00
2023-08-07T10:58:53.096Z,6.03
2023-08-07T11:01:27.447Z,6.15
2023-08-07T11:04:02.181Z,5.70
2023-08-07T11:06:39.288Z,5.68
2023-08-07T11:09:14.127Z,5.40
2023-08-07T11:11:51.307Z,6.28
2023-08-07T11:14:25.427Z,6.30
2023-08-07T11:16:59.593Z,6.20
2023-08-07T11:19:33.632Z,6.18
2023-08-07T11:22:07.384Z,6.30
2023-08-07T11:24:41.032Z,6.07
2023-08-07T11:27:17.303Z,5.50
2023-08-07T11:29:54.721Z,6.03
2023-08-07T11:32:30.191Z,6.18
2023-08-07T11:35:05.480Z,6.07
2023-08-07T11:37:39.172Z,5.60
2023-08-07T11:40:15.304Z,5.82
2023-08-07T11:42:51.448Z,5.88
2023-08-07T11:45:25.462Z,5.70
2023-08-07T11:47:59.215Z,5.60
2023-08-07T11:50:33.762Z,6.28
2023-08-07T11:53:07.734Z,5.75
2023-08-07T11:55:41.174Z,5.97
2023-08-07T11:58:16.186Z,5.78
2023-08-07T12:00:51.575Z,5.88
2023-08-07T12:03:32.061Z,5.32
2023-08-07T12:06:08.761Z,5.78
2023-08-07T12:08:44.154Z,5.40
2023-08-07T12:11:17.962Z,6.25
2023-08-07T12:13:54.791Z,5.88
2023-08-07T12:16:29.080Z,5.80
2023-08-07T12:19:03.469Z,6.05
2023-08-07T12:21:37.721Z,5.80
2023-08-07T12:24:14.371Z,5.93
2023-08-07T12:26:49.417Z,6.13
2023-08-07T12:29:35.024Z,6.15
2023-08-07T12:32:09.468Z,6.22
2023-08-07T12:37:20.783Z,6.18
2023-08-07T12:42:30.667Z,6.50
2023-08-07T12:45:06.820Z,6.40
2023-08-07T12:47:41.565Z,6.18
2023-08-07T12:50:15.705Z,6.93
2023-08-07T12:52:53.688Z,7.10
2023-08-07T12:55:32.975Z,7.07
2023-08-07T12:58:06.130Z,7.15
2023-08-07T13:00:51.973Z,6.40
2023-08-07T13:03:26.066Z,6.03
2023-08-07T13:05:59.222Z,6.47
2023-08-07T13:08:33.758Z,6.68
2023-08-07T13:11:06.853Z,6.80
2023-08-07T13:13:40.604Z,7.00
2023-08-07T13:16:15.691Z,7.25
2023-08-07T13:18:49.383Z,6.63
2023-08-07T13:21:23.135Z,6.70
2023-08-07T13:23:57.776Z,7.20
2023-08-07T13:26:31.474Z,6.70
2023-08-07T13:29:06.453Z,7.15
2023-08-07T13:31:44.806Z,6.47
2023-08-07T13:34:19.942Z,7.60
2023-08-07T13:36:54.748Z,6.80
2023-08-07T13:39:28.492Z,7.03
2023-08-07T13:42:02.488Z,7.13
2023-08-07T13:44:36.003Z,6.60
2023-08-07T13:47:12.479Z,6.53
2023-08-07T13:49:46.435Z,7.55
2023-08-07T13:52:25.204Z,6.60
2023-08-07T13:54:58.526Z,7.75
2023-08-07T13:57:39.942Z,7.70
2023-08-07T14:00:15.531Z,7.45
2023-08-07T14:02:52.743Z,7.53
2023-08-07T14:05:27.537Z,8.25
2023-08-07T14:08:03.083Z,7.28
2023-08-07T14:10:36.369Z,7.88
2023-08-07T14:13:10.219Z,8.07
2023-08-07T14:15:44.036Z,7.53
2023-08-07T14:18:19.283Z,7.68
2023-08-07T14:21:01.954Z,8.20
2023-08-07T14:23:37.131Z,9.10
2023-08-07T14:26:11.126Z,9.88
2023-08-07T14:28:47.195Z,9.23
2023-08-07T14:31:21.235Z,8.27
2023-08-07T14:33:57.320Z,7.78
2023-08-07T14:36:31.109Z,8.32
2023-08-07T14:39:06.073Z,8.55
2023-08-07T14:41:43.171Z,8.65
2023-08-07T14:44:16.802Z,9.30
2023-08-07T14:46:51.524Z,8.55
2023-08-07T14:49:27.194Z,8.45
2023-08-07T14:52:00.624Z,8.70
2023-08-07T14:54:34.280Z,8.98
2023-08-07T14:57:09.596Z,8.40
2023-08-07T14:59:43.135Z,8.95
2023-08-07T15:02:16.435Z,8.95
2023-08-07T15:04:54.194Z,8.77
2023-08-07T15:07:28.081Z,9.10
2023-08-07T15:10:02.746Z,8.32
2023-08-07T15:12:36.891Z,8.68
2023-08-07T15:15:10.723Z,8.80
2023-08-07T15:17:44.272Z,8.80
2023-08-07T15:20:22.454Z,8.85
2023-08-07T15:22:56.315Z,9.18
2023-08-07T15:25:29.727Z,9.70
2023-08-07T15:28:06.732Z,9.43
2023-08-07T15:30:45.288Z,9.45
2023-08-07T15:33:22.075Z,9.82
2023-08-07T15:36:02.420Z,10.63
2023-08-07T15:38:38.040Z,10.32
2023-08-07T15:41:12.424Z,10.77
2023-08-07T15:43:46.382Z,10.60
2023-08-07T15:46:20.285Z,11.80
2023-08-07T15:48:54.374Z,11.60
2023-08-07T15:51:30.786Z,11.80
2023-08-07T15:54:04.399Z,12.60
2023-08-07T15:56:37.224Z,11.75
2023-08-07T15:59:10.862Z,12.70
2023-08-07T16:01:44.052Z,12.50
2023-08-07T16:04:16.953Z,12.55
2023-08-07T16:06:51.584Z,12.38
2023-08-07T16:09:26.244Z,12.52
2023-08-07T16:12:00.373Z,12.63
2023-08-07T16:14:36.302Z,14.02
2023-08-07T16:17:12.025Z,13.40
2023-08-07T16:19:45.469Z,13.48
2023-08-07T16:22:22.021Z,14.55
2023-08-07T16:24:56.078Z,14.60
2023-08-07T16:27:30.489Z,14.50
2023-08-07T16:30:06.334Z,14.90
2023-08-07T16:32:40.938Z,15.18
2023-08-07T16:35:15.122Z,14.55
2023-08-07T16:37:50.253Z,15.50
2023-08-07T16:40:23.842Z,15.57
2023-08-07T16:42:58.306Z,14.90
2023-08-07T16:45:33.085Z,16.55
2023-08-07T16:48:06.920Z,15.90
2023-08-07T16:50:41.876Z,17.65
2023-08-07T16:53:19.458Z,17.38
2023-08-07T16:55:54.638Z,15.18
2023-08-07T16:58:28.700Z,14.98
2023-08-07T17:01:02.278Z,15.05
2023-08-07T17:03:35.562Z,14.63
2023-08-07T17:06:08.517Z,15.25
2023-08-07T17:08:44.336Z,13.82
2023-08-07T17:11:17.575Z,15.23
2023-08-07T17:13:51.560Z,15.18
2023-08-07T17:16:25.422Z,14.52
2023-08-07T17:18:59.429Z,14.43
2023-08-07T17:21:32.347Z,16.95
2023-08-07T17:24:07.829Z,23.70
2023-08-07T17:26:41.417Z,17.02
2023-08-07T17:29:15.125Z,15.68
2023-08-07T17:31:48.752Z,14.52
2023-08-07T17:34:21.983Z,14.98
2023-08-07T17:36:55.488Z,15.20
2023-08-07T17:39:30.432Z,14.43
2023-08-07T17:42:03.355Z,16.63
2023-08-07T17:44:36.945Z,18.13
2023-08-07T17:47:12.117Z,16.10
2023-08-07T17:49:45.390Z,15.93
2023-08-07T17:52:19.392Z,15.88
2023-08-07T17:54:54.842Z,16.05
2023-08-07T17:57:29.106Z,15.20
2023-08-07T18:00:03.640Z,14.90
2023-08-07T18:02:39.590Z,15.75
2023-08-07T18:05:13.433Z,14.85
2023-08-07T18:07:46.548Z,15.38
2023-08-07T18:10:21.793Z,16.35
2023-08-07T18:12:55.910Z,17.02
2023-08-07T18:15:29.869Z,19.05
2023-08-07T18:18:04.052Z,15.88
2023-08-07T18:20:37.663Z,16.27
2023-08-07T18:23:11.958Z,16.48
2023-08-07T18:25:47.522Z,16.92
2023-08-07T18:28:20.937Z,16.77
2023-08-07T18:30:54.147Z,17.65
2023-08-07T18:33:27.731Z,19.50
2023-08-07T18:36:02.893Z,17.80
2023-08-07T18:38:36.846Z,17.88
2023-08-07T18:41:11.807Z,17.92
2023-08-07T18:43:45.252Z,15.77
2023-08-07T18:46:20.303Z,17.13
2023-08-07T18:48:53.316Z,15.70
2023-08-07T18:51:26.229Z,15.73
2023-08-07T18:53:59.653Z,15.70
2023-08-07T18:56:35.548Z,14.27
2023-08-07T18:59:09.287Z,14.88
2023-08-07T19:01:42.813Z,13.65
2023-08-07T19:04:18.174Z,13.45
2023-08-07T19:06:51.920Z,13.15
2023-08-07T19:09:25.534Z,12.43
2023-08-07T19:12:01.050Z,11.45
2023-08-07T19:14:35.305Z,12.07
2023-08-07T19:17:09.679Z,11.20
2023-08-07T19:19:42.931Z,11.90
2023-08-07T19:22:16.732Z,12.00
2023-08-07T19:24:49.621Z,11.30
2023-08-07T19:27:25.322Z,12.00
2023-08-07T19:29:58.800Z,11.15
2023-08-07T19:32:32.221Z,12.57
2023-08-07T19:35:05.603Z,11.25
2023-08-07T19:37:38.789Z,11.55
2023-08-07T19:40:13.858Z,11.70
2023-08-07T19:42:49.070Z,11.10
2023-08-07T19:45:22.757Z,12.35
2023-08-07T19:47:56.113Z,11.40
2023-08-07T19:50:29.094Z,11.43
2023-08-07T19:53:02.249Z,10.15
2023-08-07T19:55:35.629Z,10.60
2023-08-07T19:58:11.173Z,11.38
2023-08-07T20:00:44.521Z,10.43
2023-08-07T20:03:18.655Z,11.82
2023-08-07T20:05:52.239Z,12.25
2023-08-07T20:08:25.879Z,12.10
2023-08-07T20:11:01.045Z,12.65
2023-08-07T20:13:36.842Z,12.85
2023-08-07T20:16:13.066Z,11.82
2023-08-07T20:18:46.846Z,12.60
2023-08-07T20:21:21.045Z,12.05
2023-08-07T20:23:54.642Z,11.43
2023-08-07T20:26:28.229Z,11.40
2023-08-07T20:29:03.658Z,11.85
2023-08-07T20:31:37.270Z,11.90
2023-08-07T20:34:10.582Z,12.05
2023-08-07T20:36:43.859Z,12.13
2023-08-07T20:39:18.583Z,13.13
2023-08-07T20:41:52.303Z,12.52
2023-08-07T20:44:28.217Z,13.38
2023-08-07T20:47:01.574Z,11.80
2023-08-07T20:49:35.455Z,11.57
2023-08-07T20:52:10.389Z,11.77
2023-08-07T20:54:43.374Z,11.70
2023-08-07T20:57:17.384Z,12.05
2023-08-07T20:59:53.503Z,12.05
2023-08-07T21:02:26.787Z,11.13
2023-08-07T21:04:59.923Z,11.48
2023-08-07T21:07:33.269Z,11.40
2023-08-07T21:10:06.804Z,11.93
2023-08-07T21:12:40.353Z,12.10
2023-08-07T21:15:17.892Z,11.35
2023-08-07T21:17:51.213Z,12.15
2023-08-07T21:20:24.163Z,11.90
2023-08-07T21:22:58.377Z,11.40
2023-08-07T21:25:31.459Z,11.63
2023-08-07T21:28:04.496Z,11.40
2023-08-07T21:30:40.104Z,12.23
2023-08-07T21:33:13.167Z,11.55
2023-08-07T21:35:45.946Z,11.30
2023-08-07T21:38:20.406Z,11.27
2023-08-07T21:40:53.562Z,11.38
2023-08-07T21:43:28.485Z,10.98
2023-08-07T21:46:03.535Z,10.20
2023-08-07T21:48:36.383Z,10.63
2023-08-07T21:51:10.493Z,10.45
2023-08-07T21:53:43.685Z,10.75
2023-08-07T21:56:16.905Z,10.55
2023-08-07T21:58:50.065Z,9.63
2023-08-07T22:01:25.366Z,10.65
2023-08-07T22:03:59.301Z,9.77
2023-08-07T22:06:32.952Z,9.55
2023-08-07T22:09:07.047Z,9.43
2023-08-07T22:11:40.398Z,10.43
2023-08-07T22:14:13.702Z,10.80
2023-08-07T22:16:49.937Z,9.00
2023-08-07T22:19:23.950Z,9.30
2023-08-07T22:21:57.468Z,8.85
2023-08-07T22:24:30.663Z,9.57
2023-08-07T22:27:03.916Z,9.10
2023-08-07T22:29:36.761Z,8.65
2023-08-07T22:32:12.065Z,9.10
2023-08-07T22:34:44.911Z,9.13
2023-08-07T22:37:17.729Z,9.07
2023-08-07T22:39:52.419Z,8.73
2023-08-07T22:42:25.630Z,9.45
2023-08-07T22:44:58.837Z,9.63
2023-08-07T22:47:35.842Z,10.07
2023-08-07T22:50:09.616Z,9.50
2023-08-07T22:52:42.849Z,9.23
2023-08-07T22:55:16.068Z,8.93
2023-08-07T22:57:49.267Z,8.65
2023-08-07T23:00:23.376Z,8.35
2023-08-07T23:03:00.427Z,8.65
2023-08-07T23:05:34.195Z,8.27
2023-08-07T23:08:07.494Z,8.02
2023-08-07T23:10:41.095Z,8.52
2023-08-07T23:13:14.955Z,7.40
2023-08-07T23:15:49.533Z,7.50
2023-08-07T23:18:25.938Z,7.72
2023-08-07T23:20:59.582Z,7.13
2023-08-07T23:23:33.349Z,8.05
2023-08-07T23:26:07.016Z,7.75
2023-08-07T23:28:40.640Z,8.20
2023-08-07T23:31:13.939Z,8.75
2023-08-07T23:33:51.352Z,7.97
2023-08-07T23:36:24.862Z,7.47
2023-08-07T23:39:00.536Z,8.50
2023-08-07T23:41:34.545Z,8.40
2023-08-07T23:44:08.318Z,8.35
2023-08-07T23:46:41.956Z,9.07
2023-08-07T23:49:17.130Z,8.50
2023-08-07T23:51:50.635Z,8.65
2023-08-07T23:54:24.058Z,8.90
2023-08-07T23:56:57.017Z,8.85
2023-08-07T23:59:30.111Z,9.02
